
Distance (Route):
Temperature : -16.0°C
Humidity : 39.5%
Pressure : 490.9hPa| Receiver | Date | Latitude | Longitude | Direction | Speed | Altitude | Climb | Temperature | Humidity | Pressure | Voltage | Killtimer | Uptime | BKT | XDATA |
|---|---|---|---|---|---|---|---|---|---|---|---|---|---|---|---|
| GYPAP8-17 | 2026-09-03 01:11:00 | 46.12628 | 20.93355 | 110° | 51km/h | 5959m | -10.3m/s | -16.0°C | 39.5% | 490.9hPa | 2.6V | 00:00:00 | 00:00:00 | 00:00:00 | |
| GYPAP8-17 | 2026-09-03 01:10:09 | 46.12894 | 20.92386 | 122° | 58km/h | 6518m | -11.8m/s | -19.6°C | 63.6% | 455.8hPa | 2.6V | 00:00:00 | 00:00:00 | 00:00:00 | |
| S52SK | 2026-09-03 01:02:05 | 46.15047 | 20.81751 | 99° | 69km/h | 12344m | -13.2m/s | 0°C | 0% | 0hPa | 2.6V | 08:16:00 | 00:00:00 | 00:00:00 | |
| S52SK | 2026-09-03 01:01:59 | 46.15058 | 20.81603 | 97° | 66km/h | 12424m | -12.8m/s | 0°C | 0% | 0hPa | 2.6V | 08:16:00 | 00:00:00 | 00:00:00 | |
| S52SK | 2026-09-03 01:00:00 | 46.15219 | 20.78819 | 89° | 73km/h | 14157m | -15.7m/s | 0°C | 0% | 0hPa | 2.6V | 00:00:00 | 00:00:00 | 00:00:00 | |
| S52SK | 2026-09-03 00:59:54 | 46.15221 | 20.78652 | 96° | 77km/h | 14250m | -16.2m/s | 0°C | 0% | 0hPa | 2.6V | 00:00:00 | 00:00:00 | 00:00:00 | |
| 9A1FER-3 | 2026-09-03 00:54:42 | 46.15547 | 20.73463 | 130° | 38km/h | 20277m | -23.4m/s | -53.5°C | 3.9% | 56.2hPa | 2.6V | 00:00:00 | 02:05:18 | 00:00:00 | |
| 9A1FER-3 | 2026-09-03 00:54:26 | 46.15675 | 20.73344 | 151° | 24km/h | 20645m | -23.1m/s | -53.5°C | 3.9% | 53.1hPa | 2.6V | 08:23:00 | 02:05:02 | 00:00:00 | |
| GYPAP8-17 | 2026-09-03 00:53:59 | 46.15820 | 20.73227 | 210° | 24km/h | 21237m | -22.1m/s | -51.8°C | 0.9% | 48.5hPa | 2.6V | 00:00:00 | 00:00:00 | 00:00:00 | |
| 9A1FER-3 | 2026-09-03 00:51:36 | 46.15753 | 20.73300 | 330° | 11km/h | 24732m | -24.8m/s | -51.6°C | 3.6% | 28.1hPa | 2.6V | 00:00:00 | 02:02:12 | 00:00:00 | |
| GYPAP8-17 | 2026-09-03 00:51:31 | 46.15742 | 20.73310 | 318° | 11km/h | 24832m | -27.6m/s | -51.8°C | 0.9% | 27.7hPa | 2.6V | 00:00:00 | 00:00:00 | 00:00:00 | |
| 9A1FER-10 | 2026-09-03 00:51:30 | 46.15738 | 20.73314 | 318° | 13km/h | 24884m | -25.1m/s | 0°C | 0% | 0hPa | 2.6V | 00:00:00 | 02:02:06 | 00:00:00 | |
| 9A1FER-3 | 2026-09-03 00:51:20 | 46.15715 | 20.73325 | 22° | 18km/h | 25155m | -27.5m/s | -50.6°C | 3.5% | 26.3hPa | 2.6V | 00:00:00 | 02:01:56 | 00:00:00 | |
| 9A1FER-10 | 2026-09-03 00:51:14 | 46.15701 | 20.73299 | 69° | 20km/h | 25313m | -26.2m/s | 0°C | 0% | 0hPa | 2.6V | 00:00:00 | 02:01:50 | 00:00:00 | |
| 9A1FER-3 | 2026-09-03 00:51:05 | 46.15709 | 20.73236 | 124° | 11km/h | 25556m | -26.5m/s | -49.5°C | 3.2% | 24.7hPa | 2.6V | 00:00:00 | 02:01:41 | 00:00:00 | |
| 9A1FER-3 | 2026-09-03 00:50:50 | 46.15680 | 20.73234 | 10° | 13km/h | 25936m | -27.3m/s | -49.7°C | 3.2% | 23.3hPa | 2.5V | 00:00:00 | 02:01:26 | 00:00:00 | |
| 9A1FER-3 | 2026-09-03 00:50:35 | 46.15675 | 20.73173 | 113° | 11km/h | 26354m | -26.0m/s | -50.3°C | 3.3% | 21.8hPa | 2.5V | 00:00:00 | 02:01:11 | 00:00:00 | |
| 9A1FER-3 | 2026-09-03 00:50:13 | 46.15692 | 20.73134 | 101° | 20km/h | 26954m | -28.2m/s | -50.2°C | 3.6% | 19.9hPa | 2.5V | 00:00:00 | 02:00:49 | 00:00:00 | |
| 9A1FER-3 | 2026-09-03 00:49:58 | 46.15740 | 20.73055 | 152° | 11km/h | 27393m | -27.7m/s | -48.7°C | 3.4% | 18.6hPa | 2.6V | 00:00:00 | 02:00:34 | 00:00:00 | |
| 9A1FER-3 | 2026-09-03 00:49:43 | 46.15774 | 20.73034 | 166° | 11km/h | 27866m | -32.1m/s | -46.3°C | 2.9% | 17.3hPa | 2.6V | 00:00:00 | 02:00:19 | 00:00:00 | |
| 9A1FER-3 | 2026-09-03 00:48:11 | 46.15744 | 20.73098 | 27° | 18km/h | 30722m | -32.6m/s | -40.8°C | 2.2% | 11.2hPa | 2.6V | 00:00:00 | 01:58:47 | 08:30:00 | |
| 9A1FER-3 | 2026-09-03 00:47:56 | 46.15708 | 20.73038 | 58° | 11km/h | 31128m | -12.6m/s | -41.4°C | 2.3% | 10.5hPa | 2.5V | 00:00:00 | 01:58:32 | 00:00:00 | |
| 9A1FER-3 | 2026-09-03 00:47:38 | 46.15689 | 20.72962 | 51° | 26km/h | 31029m | 4.7m/s | -41.9°C | 2.3% | 10.6hPa | 2.5V | 00:00:00 | 01:58:14 | 00:00:00 | |
| 9A1FER-3 | 2026-09-03 00:44:57 | 46.15242 | 20.73014 | 187° | 9km/h | 29957m | 6.5m/s | -43.9°C | 2.5% | 12.5hPa | 2.5V | 00:00:00 | 01:55:33 | 00:00:00 | |
| 9A1FER-3 | 2026-09-03 00:44:37 | 46.15238 | 20.72975 | 69° | 18km/h | 29822m | 5.3m/s | -44.5°C | 2.7% | 12.8hPa | 2.6V | 00:00:00 | 01:55:13 | 00:00:00 | |
| 9A1FER-3 | 2026-09-03 00:44:05 | 46.15119 | 20.72889 | 27° | 11km/h | 29601m | 6.7m/s | -43.8°C | 2.5% | 13.2hPa | 2.6V | 00:00:00 | 01:54:41 | 00:00:00 | |
| 9A1FER-3 | 2026-09-03 00:43:49 | 46.15073 | 20.72918 | 305° | 18km/h | 29492m | 6.4m/s | -43.8°C | 2.6% | 13.4hPa | 2.6V | 00:00:00 | 01:54:25 | 00:00:00 | |
| 9A1FER-3 | 2026-09-03 00:43:33 | 46.15034 | 20.73009 | 310° | 5km/h | 29386m | 5.8m/s | -44.0°C | 2.6% | 13.7hPa | 2.6V | 00:00:00 | 01:54:09 | 00:00:00 | |
| 9A1FER-3 | 2026-09-03 00:43:18 | 46.15018 | 20.73012 | 142° | 9km/h | 29284m | 6.7m/s | -43.8°C | 2.6% | 13.9hPa | 2.6V | 00:00:00 | 01:53:54 | 08:30:00 | |
| 9A1FER-3 | 2026-09-03 00:43:03 | 46.14997 | 20.73014 | 276° | 9km/h | 29179m | 7.7m/s | -43.4°C | 2.5% | 14.1hPa | 0V | 00:00:00 | 01:53:39 | 00:00:00 | |
| 9A1FER-3 | 2026-09-03 00:42:47 | 46.14991 | 20.73058 | 317° | 9km/h | 29068m | 6.9m/s | 0°C | 0% | 0hPa | 0V | 00:00:00 | 01:53:23 | 00:00:00 | |
| 9A1FER-3 | 2026-09-03 00:42:32 | 46.14984 | 20.73100 | 12° | 9km/h | 28968m | 6.0m/s | 0°C | 0% | 0hPa | 0V | 00:00:00 | 01:53:08 | 00:00:00 | |
| 9A1FER-3 | 2026-09-03 00:42:11 | 46.14965 | 20.73156 | 212° | 18km/h | 28836m | 7.2m/s | 0°C | 0% | 0hPa | 0V | 00:00:00 | 01:52:47 | 00:00:00 | |
| GYPAP8-17 | 2026-09-03 00:42:03 | 46.14986 | 20.73166 | 121° | 5km/h | 28789m | 7.7m/s | -43.7°C | 0.6% | 15.0hPa | 0V | 00:00:00 | 00:00:00 | 00:00:00 | |
| 9A1FER-3 | 2026-09-03 00:41:47 | 46.15050 | 20.73162 | 182° | 7km/h | 28678m | 6.6m/s | 0°C | 0% | 0hPa | 0V | 00:00:00 | 01:52:23 | 00:00:00 | |
| 9A1FER-3 | 2026-09-03 00:41:32 | 46.15095 | 20.73187 | 167° | 22km/h | 28582m | 6.5m/s | 0°C | 0% | 0hPa | 0V | 00:00:00 | 01:52:08 | 00:00:00 | |
| 9A1FER-3 | 2026-09-03 00:41:15 | 46.15181 | 20.73168 | 154° | 15km/h | 28472m | 6.0m/s | 0°C | 0% | 0hPa | 0V | 00:00:00 | 01:51:51 | 00:00:00 | |
| GYPAP8-17 | 2026-09-03 00:41:01 | 46.15224 | 20.73140 | 89° | 7km/h | 28388m | 7.5m/s | -45.3°C | 0.6% | 15.9hPa | 0V | 00:00:00 | 00:00:00 | 00:00:00 | |
| 9A1FER-3 | 2026-09-03 00:41:00 | 46.15224 | 20.73136 | 112° | 7km/h | 28376m | 6.0m/s | 0°C | 0% | 0hPa | 0V | 00:00:00 | 01:51:36 | 00:00:00 | |
| 9A1FER-3 | 2026-09-03 00:40:43 | 46.15227 | 20.73139 | 309° | 7km/h | 28263m | 6.9m/s | 0°C | 0% | 0hPa | 0V | 00:00:00 | 01:51:19 | 08:30:00 | |
| 9A1FER-3 | 2026-09-03 00:40:28 | 46.15239 | 20.73139 | 199° | 11km/h | 28167m | 6.6m/s | 0°C | 0% | 0hPa | 0V | 00:00:00 | 01:51:04 | 00:00:00 | |
| 9A1FER-3 | 2026-09-03 00:40:13 | 46.15256 | 20.73138 | 206° | 7km/h | 28070m | 5.7m/s | 0°C | 0% | 0hPa | 0V | 00:00:00 | 01:50:49 | 00:00:00 | |
| 9A1FER-3 | 2026-09-03 00:39:57 | 46.15276 | 20.73133 | 175° | 5km/h | 27961m | 6.9m/s | 0°C | 0% | 0hPa | 0V | 00:00:00 | 01:50:33 | 00:00:00 | |
| 9A1FER-3 | 2026-09-03 00:39:42 | 46.15296 | 20.73130 | 111° | 7km/h | 27859m | 6.0m/s | 0°C | 0% | 0hPa | 0V | 00:00:00 | 01:50:18 | 00:00:00 | |
| 9A1FER-3 | 2026-09-03 00:39:23 | 46.15288 | 20.73099 | 340° | 7km/h | 27729m | 7.2m/s | 0°C | 0% | 0hPa | 0V | 00:00:00 | 01:49:59 | 00:00:00 | |
| 9A1FER-3 | 2026-09-03 00:39:08 | 46.15314 | 20.73082 | 139° | 11km/h | 27626m | 6.0m/s | 0°C | 0% | 0hPa | 0V | 00:00:00 | 01:49:44 | 00:00:00 | |
| 9A1FER-3 | 2026-09-03 00:38:53 | 46.15349 | 20.73062 | 110° | 13km/h | 27526m | 7.6m/s | 0°C | 0% | 0hPa | 0V | 00:00:00 | 01:49:29 | 00:00:00 | |
| 9A1FER-3 | 2026-09-03 00:38:38 | 46.15361 | 20.73040 | 112° | 11km/h | 27424m | 6.0m/s | 0°C | 0% | 0hPa | 0V | 00:00:00 | 01:49:14 | 00:00:00 | |
| 9A1FER-3 | 2026-09-03 00:38:22 | 46.15393 | 20.73004 | 133° | 16km/h | 27321m | 7.1m/s | 0°C | 0% | 0hPa | 0V | 00:00:00 | 01:48:58 | 00:00:00 | |
| GYPAP8-17 | 2026-09-03 00:34:36 | 46.15396 | 20.72260 | 332° | 22km/h | 25879m | 4.9m/s | -49.9°C | 0.8% | 23.4hPa | 0V | 00:00:00 | 00:00:00 | 00:00:00 | |
| GYPAP8-17 | 2026-09-03 00:33:31 | 46.15448 | 20.72048 | 83° | 29km/h | 25469m | 5.9m/s | -50.2°C | 0.8% | 25.0hPa | 0V | 00:00:00 | 00:00:00 | 00:00:00 | |
| GYPAP8-17 | 2026-09-03 00:28:18 | 46.15416 | 20.72604 | 105° | 7km/h | 23593m | 5.0m/s | -51.9°C | 0.9% | 33.4hPa | 0V | 00:00:00 | 00:00:00 | 00:00:00 | |
| GYPAP8-17 | 2026-09-03 00:21:39 | 46.15258 | 20.72380 | 183° | 26km/h | 21303m | 5.4m/s | -52.2°C | 1.0% | 47.7hPa | 0V | 00:00:00 | 00:00:00 | 00:00:00 | |
| GYPAP8-17 | 2026-09-03 00:19:17 | 46.16035 | 20.71475 | 142° | 31km/h | 20537m | 3.9m/s | -53.9°C | 1.1% | 53.9hPa | 0V | 00:00:00 | 00:00:00 | 00:00:00 | |
| GYPAP8-17 | 2026-09-03 00:16:21 | 46.16780 | 20.69573 | 89° | 35km/h | 19560m | 4.6m/s | -56.4°C | 1.2% | 62.8hPa | 0V | 00:00:00 | 00:00:00 | 00:00:00 | |
| GYPAP8-17 | 2026-09-03 00:11:31 | 46.16338 | 20.66456 | 60° | 46km/h | 18020m | 5.0m/s | -54.9°C | 1.2% | 79.9hPa | 0V | 00:00:00 | 00:00:00 | 00:00:00 | |
| GYPAP8-17 | 2026-09-03 00:03:42 | 46.16847 | 20.58812 | 79° | 55km/h | 15628m | 5.9m/s | -55.4°C | 1.6% | 116.1hPa | 0V | 00:00:00 | 00:00:00 | 00:00:00 | |
| GYPAP8-17 | 2026-09-03 00:01:35 | 46.16619 | 20.56042 | 95° | 51km/h | 14940m | 5.3m/s | -52.9°C | 1.4% | 129.2hPa | 0V | 00:00:00 | 00:00:00 | 00:00:00 | |
| GYPAP8-17 | 2026-09-03 00:00:10 | 46.16644 | 20.54506 | 96° | 73km/h | 14551m | 5.8m/s | -53.9°C | 1.8% | 137.3hPa | 0V | 00:00:00 | 00:00:00 | 00:00:00 | |
| GYPAP8-17 | 2026-09-02 23:57:47 | 46.16843 | 20.50793 | 86° | 69km/h | 13891m | 5.6m/s | -54.1°C | 1.9% | 152.2hPa | 0V | 00:00:00 | 00:00:00 | 00:00:00 | |
| GYPAP8-17 | 2026-09-02 23:52:23 | 46.17450 | 20.42907 | 112° | 64km/h | 12219m | 2.9m/s | -51.5°C | 3.9% | 196.7hPa | 0V | 00:00:00 | 00:00:00 | 00:00:00 | |
| LZ4TU-5 | 2026-09-02 23:50:16 | 46.17965 | 20.39557 | 98° | 66km/h | 11550m | 4.9m/s | 0°C | 0% | 0hPa | 0V | 00:00:00 | 00:00:00 | 00:00:00 | |
| LZ4TU-5 | 2026-09-02 23:50:11 | 46.17971 | 20.39435 | 95° | 68km/h | 11519m | 4.2m/s | 0°C | 0% | 0hPa | 0V | 00:00:00 | 00:00:00 | 00:00:00 | |
| GYPAP8-17 | 2026-09-02 23:49:48 | 46.17942 | 20.38844 | 89° | 77km/h | 11395m | 5.4m/s | -55.4°C | 25.4% | 223.6hPa | 0V | 00:00:00 | 00:00:00 | 00:00:00 | |
| LZ4TU-5 | 2026-09-02 23:48:28 | 46.17945 | 20.36953 | 87° | 64km/h | 10989m | 4.4m/s | 0°C | 0% | 0hPa | 0V | 00:00:00 | 00:00:00 | 00:00:00 | |
| LZ4TU-5 | 2026-09-02 23:48:23 | 46.17939 | 20.36834 | 86° | 62km/h | 10966m | 3.9m/s | 0°C | 0% | 0hPa | 0V | 00:00:00 | 00:00:00 | 00:00:00 | |
| GYPAP8-17 | 2026-09-02 23:44:10 | 46.18401 | 20.30964 | 99° | 60km/h | 9595m | 6.1m/s | -44.2°C | 0% | 0hPa | 0V | 00:00:00 | 00:00:00 | 00:00:00 | |
| GYPAP8-17 | 2026-09-02 23:42:53 | 46.18652 | 20.29346 | 108° | 62km/h | 9149m | 7.9m/s | -40.3°C | 0% | 0hPa | 0V | 00:00:00 | 00:00:00 | 00:00:00 | |
| GYPAP8-17 | 2026-09-02 23:40:40 | 46.19267 | 20.26456 | 115° | 66km/h | 8312m | 7.2m/s | -33.5°C | 0% | 0hPa | 0V | 00:00:00 | 00:00:00 | 00:00:00 | |
| GYPAP8-17 | 2026-09-02 23:39:24 | 46.19761 | 20.24739 | 119° | 57km/h | 7896m | 4.7m/s | 0°C | 0% | 0hPa | 0V | 00:00:00 | 00:00:00 | 00:00:00 | |
| GYPAP8-17 | 2026-09-02 23:38:35 | 46.20155 | 20.23751 | 112° | 60km/h | 7615m | 4.9m/s | 0°C | 0% | 0hPa | 0V | 00:00:00 | 00:00:00 | 00:00:00 | |
| GYPAP8-17 | 2026-09-02 23:37:16 | 46.20650 | 20.22219 | 118° | 60km/h | 7177m | 6.7m/s | 0°C | 0% | 0hPa | 0V | 00:00:00 | 00:00:00 | 00:00:00 | |
| GYPAP8-17 | 2026-09-02 23:36:27 | 46.20860 | 20.21250 | 104° | 66km/h | 6918m | 5.4m/s | 0°C | 0% | 0hPa | 0V | 00:00:00 | 00:00:00 | 00:00:00 | |
| GYPAP8-17 | 2026-09-02 23:36:06 | 46.20943 | 20.20792 | 106° | 68km/h | 6797m | 6.7m/s | 0°C | 0% | 0hPa | 0V | 00:00:00 | 00:00:00 | 00:00:00 |